PATK/TKA METAR and TAF weather

Enter ICAO airport designator
Station Type Date Time Source
PATK METAR 2021/09/24 00:53 UTC NOAA

PATK 240053Z 35014G24KT 10SM CLR 10/M05 A2920


Station Type Date Time Source
PATK Decoded METAR 2021/09/24 00:53 UTC NOAA

TALKEETNA AIRPORT, AK, United States (PATK) 62-19N 150-06W 109M
Sep 23, 2021 - 08:53 PM EDT / 2021.09.24 0053 UTC
Wind: from the N (350 degrees) at 16 MPH (14 KT) gusting to 28 MPH (24 KT):0
Visibility: 10 mile(s):0
Sky conditions: clear
Temperature: 50 F (10 C)
Dew Point: 23 F (-5 C)
Relative Humidity: 34%
Pressure (altimeter): 29.2 in. Hg (988 hPa)
ob: PATK 240053Z 35014G24KT 10SM CLR 10/M05 A2920
cycle: 1

Station Type Date Time Source
PATK TAF 2021/09/23 21:34 UTC NOAA

TAF
AMD PATK 232032Z 2321/2418 34010G20KT P6SM SCT070 OVC100
FM241200 36010KT P6SM -SN SCT030 OVC050

Example: see airport list